createdAt,value
2024-02-19T00:01:26.846Z,99596.53
2024-02-19T00:03:57.242Z,99596.84
2024-02-19T00:06:27.408Z,99595.03
2024-02-19T00:08:59.839Z,99609.59
2024-02-19T00:11:31.241Z,99610.50
2024-02-19T00:14:01.129Z,99601.19
2024-02-19T00:16:31.072Z,99604.00
2024-02-19T00:19:01.146Z,99601.66
2024-02-19T00:21:31.009Z,99607.56
2024-02-19T00:24:03.456Z,99604.31
2024-02-19T00:26:33.255Z,99612.66
2024-02-19T00:29:03.035Z,99614.22
2024-02-19T00:31:33.527Z,99628.13
2024-02-19T00:34:03.363Z,99640.94
2024-02-19T00:36:33.211Z,99651.66
2024-02-19T00:39:06.144Z,99676.53
2024-02-19T00:41:36.049Z,99695.56
2024-02-19T00:44:05.805Z,99710.13
2024-02-19T00:46:35.761Z,99740.63
2024-02-19T00:49:05.614Z,99765.28
2024-02-19T00:51:38.069Z,99793.00
2024-02-19T00:54:10.436Z,99810.53
2024-02-19T00:56:40.882Z,99826.66
2024-02-19T00:59:11.069Z,99842.19
2024-02-19T01:01:41.027Z,99863.16
2024-02-19T01:04:10.932Z,99872.03
2024-02-19T01:06:40.803Z,99887.44
2024-02-19T01:09:13.660Z,99902.97
2024-02-19T01:11:43.992Z,99915.06
2024-02-19T01:14:13.743Z,99917.41
2024-02-19T01:16:43.540Z,99922.16
2024-02-19T01:19:14.203Z,99927.78
2024-02-19T01:21:44.362Z,99928.72
2024-02-19T01:24:16.823Z,99928.00
2024-02-19T01:26:46.972Z,99943.84
2024-02-19T01:29:17.095Z,99946.44
2024-02-19T01:31:46.920Z,99950.09
2024-02-19T01:34:17.535Z,99958.72
2024-02-19T01:36:47.710Z,99964.31
2024-02-19T01:39:20.158Z,99964.53
2024-02-19T01:41:50.000Z,99968.72
2024-02-19T01:44:19.789Z,99970.84
2024-02-19T01:46:50.080Z,99972.19
2024-02-19T01:49:20.066Z,99975.53
2024-02-19T01:51:50.638Z,99968.50
2024-02-19T01:54:23.181Z,99971.91
2024-02-19T01:56:54.435Z,99967.78
2024-02-19T01:59:25.743Z,99974.03
2024-02-19T02:01:57.288Z,99971.22
2024-02-19T02:04:27.864Z,99977.75
2024-02-19T02:06:58.108Z,99978.72
2024-02-19T02:09:30.701Z,99978.72
2024-02-19T02:12:00.630Z,99966.78
2024-02-19T02:14:30.640Z,99974.72
2024-02-19T02:17:00.426Z,99974.34
2024-02-19T02:19:30.373Z,99966.94
2024-02-19T02:22:00.245Z,99970.56
2024-02-19T02:24:32.739Z,99979.50
2024-02-19T02:27:05.161Z,99974.44
2024-02-19T02:29:35.012Z,99974.19
2024-02-19T02:32:04.852Z,99978.00
2024-02-19T02:34:35.917Z,99980.03
2024-02-19T02:37:06.480Z,99980.25
2024-02-19T02:39:33.974Z,99974.78
2024-02-19T02:42:07.049Z,99968.59
2024-02-19T02:44:36.945Z,99973.84
2024-02-19T02:47:07.353Z,99969.66
2024-02-19T02:49:37.254Z,99970.25
2024-02-19T02:52:07.567Z,99970.81
2024-02-19T02:54:38.416Z,99973.53
2024-02-19T02:57:10.855Z,99980.84
2024-02-19T02:59:40.633Z,99981.03
2024-02-19T03:02:10.451Z,99989.91
2024-02-19T03:04:40.490Z,100000.94
2024-02-19T03:07:10.453Z,100010.16
2024-02-19T03:09:40.353Z,100017.13
2024-02-19T03:12:12.871Z,100023.34
2024-02-19T03:14:42.808Z,100043.81
2024-02-19T03:17:12.627Z,100060.38
2024-02-19T03:19:42.860Z,100065.97
2024-02-19T03:22:12.998Z,100077.16
2024-02-19T03:24:42.933Z,100096.94
2024-02-19T03:27:15.871Z,100108.28
2024-02-19T03:29:45.630Z,100126.56
2024-02-19T03:32:15.419Z,100133.53
2024-02-19T03:34:45.217Z,100155.13
2024-02-19T03:37:16.570Z,100178.78
2024-02-19T03:39:46.486Z,100177.16
2024-02-19T03:42:18.877Z,100189.53
2024-02-19T03:44:48.758Z,100211.47
2024-02-19T03:47:18.641Z,100222.38
2024-02-19T03:49:48.491Z,100228.41
2024-02-19T03:52:18.613Z,100241.38
2024-02-19T03:54:48.648Z,100249.97
2024-02-19T03:57:23.881Z,100261.66
2024-02-19T03:59:53.741Z,100259.63
2024-02-19T04:02:23.526Z,100273.19
2024-02-19T04:04:53.445Z,100280.50
2024-02-19T04:07:23.298Z,100299.34
2024-02-19T04:09:53.149Z,100302.91
2024-02-19T04:12:25.612Z,100318.78
2024-02-19T04:14:56.971Z,100322.34
2024-02-19T04:17:27.774Z,100307.09
2024-02-19T04:20:00.271Z,100324.22
2024-02-19T04:22:30.150Z,100334.69
2024-02-19T04:24:59.981Z,100326.31
2024-02-19T04:27:32.344Z,100322.56
2024-02-19T04:30:02.167Z,100321.50
2024-02-19T04:32:32.516Z,100317.56
2024-02-19T04:35:02.546Z,100320.94
2024-02-19T04:37:34.146Z,100332.19
2024-02-19T04:40:04.498Z,100325.25
2024-02-19T04:42:37.239Z,100316.28
2024-02-19T04:45:08.090Z,100325.47
2024-02-19T04:47:37.995Z,100320.22
2024-02-19T04:50:09.888Z,100306.03
2024-02-19T04:52:39.895Z,100299.94
2024-02-19T04:55:10.506Z,100284.06
2024-02-19T04:57:43.085Z,100281.97
2024-02-19T05:00:14.157Z,100286.56
2024-02-19T05:02:44.044Z,100290.53
2024-02-19T05:05:14.017Z,100273.25
2024-02-19T05:07:44.003Z,100273.66
2024-02-19T05:10:14.520Z,100275.97
2024-02-19T05:12:46.962Z,100269.34
2024-02-19T05:15:16.960Z,100275.41
2024-02-19T05:17:46.850Z,100270.81
2024-02-19T05:20:17.059Z,100277.09
2024-02-19T05:22:47.311Z,100291.28
2024-02-19T05:25:17.734Z,100296.72
2024-02-19T05:27:50.230Z,100304.63
2024-02-19T05:30:21.536Z,100310.69
2024-02-19T05:32:51.461Z,100307.97
2024-02-19T05:35:22.279Z,100307.97
2024-02-19T05:37:52.364Z,100309.22
2024-02-19T05:40:22.315Z,100313.41
2024-02-19T05:42:54.769Z,100308.59
2024-02-19T05:45:24.650Z,100308.41
2024-02-19T05:47:54.494Z,100327.63
2024-02-19T05:50:24.469Z,100315.94
2024-02-19T05:52:54.240Z,100323.88
2024-02-19T05:55:24.143Z,100322.00
2024-02-19T05:57:56.576Z,100315.13
2024-02-19T06:00:26.456Z,100321.81
2024-02-19T06:02:57.395Z,100319.91
2024-02-19T06:05:27.264Z,100308.41
2024-02-19T06:07:57.068Z,100307.97
2024-02-19T06:10:26.898Z,100318.84
2024-02-19T06:12:59.982Z,100311.75
2024-02-19T06:15:29.813Z,100309.25
2024-02-19T06:17:59.668Z,100326.63
2024-02-19T06:20:29.778Z,100333.91
2024-02-19T06:22:59.636Z,100347.72
2024-02-19T06:25:29.601Z,100339.59
2024-02-19T06:28:03.511Z,100355.03
2024-02-19T06:30:33.422Z,100359.00
2024-02-19T06:33:03.326Z,100367.81
2024-02-19T06:35:33.315Z,100374.06
2024-02-19T06:38:03.891Z,100372.81
2024-02-19T06:40:33.815Z,100388.28
2024-02-19T06:43:06.505Z,100389.34
2024-02-19T06:45:36.413Z,100420.91
2024-02-19T06:48:06.958Z,100424.69
2024-02-19T06:50:36.885Z,100429.66
2024-02-19T06:53:07.574Z,100436.19
2024-02-19T06:55:37.382Z,100444.09
2024-02-19T06:58:09.991Z,100451.00
2024-02-19T07:00:40.976Z,100447.66
2024-02-19T07:03:10.840Z,100458.53
2024-02-19T07:05:41.429Z,100474.44
2024-02-19T07:08:13.309Z,100485.28
2024-02-19T07:10:43.563Z,100486.75
2024-02-19T07:13:16.062Z,100495.75
2024-02-19T07:15:45.941Z,100504.94
2024-02-19T07:18:15.887Z,100514.97
2024-02-19T07:20:45.946Z,100525.84
2024-02-19T07:23:15.801Z,100549.69
2024-02-19T07:25:45.649Z,100554.94
2024-02-19T07:28:18.075Z,100551.19
2024-02-19T07:30:47.898Z,100567.28
2024-02-19T07:33:17.766Z,100562.69
2024-02-19T07:35:47.641Z,100557.88
2024-02-19T07:38:17.422Z,100571.06
2024-02-19T07:40:47.211Z,100566.88
2024-02-19T07:43:19.701Z,100562.25
2024-02-19T07:45:49.658Z,100565.19
2024-02-19T07:48:19.525Z,100559.75
2024-02-19T07:50:49.406Z,100572.94
2024-02-19T07:53:19.224Z,100556.84
2024-02-19T07:55:49.032Z,100555.16
2024-02-19T07:58:21.757Z,100559.13
2024-02-19T08:00:52.188Z,100561.63
2024-02-19T08:03:22.027Z,100571.03
2024-02-19T08:05:51.958Z,100568.13
2024-02-19T08:08:22.992Z,100575.66
2024-02-19T08:10:52.863Z,100574.81
2024-02-19T08:13:25.608Z,100571.88
2024-02-19T08:15:55.601Z,100575.00
2024-02-19T08:18:25.795Z,100573.56
2024-02-19T08:20:55.692Z,100576.50
2024-02-19T08:23:25.529Z,100580.44
2024-02-19T08:25:55.415Z,100589.66
2024-02-19T08:28:27.865Z,100584.22
2024-02-19T08:30:58.603Z,100583.16
2024-02-19T08:33:29.375Z,100586.09
2024-02-19T08:36:01.895Z,100594.91
2024-02-19T08:38:31.989Z,100594.03
2024-02-19T08:41:01.824Z,100601.78
2024-02-19T08:43:34.283Z,100602.41
2024-02-19T08:46:04.152Z,100596.97
2024-02-19T08:48:33.977Z,100600.31
2024-02-19T08:51:03.855Z,100597.56
2024-02-19T08:53:33.753Z,100604.03
2024-02-19T08:56:04.323Z,100590.44
2024-02-19T08:58:37.002Z,100592.75
2024-02-19T09:01:11.634Z,100591.88
2024-02-19T09:03:41.761Z,100583.13
2024-02-19T09:06:11.749Z,100591.47
2024-02-19T09:08:41.936Z,100586.56
2024-02-19T09:11:11.895Z,100580.97
2024-02-19T09:13:47.105Z,100573.00
2024-02-19T09:16:17.554Z,100580.28
2024-02-19T09:18:47.638Z,100571.31
2024-02-19T09:21:17.549Z,100580.41
2024-02-19T09:23:47.620Z,100585.97
2024-02-19T09:26:17.558Z,100578.66
2024-02-19T09:28:49.963Z,100575.00
2024-02-19T09:31:24.327Z,100574.66
2024-02-19T09:33:54.820Z,100586.72
2024-02-19T09:36:24.766Z,100587.53
2024-02-19T09:38:54.633Z,100597.66
2024-02-19T09:41:24.648Z,100591.34
2024-02-19T09:43:57.643Z,100593.09
2024-02-19T09:46:27.576Z,100605.38
2024-02-19T09:49:03.252Z,100614.78
2024-02-19T09:51:37.521Z,100605.53
2024-02-19T09:54:11.882Z,100612.84
2024-02-19T09:56:41.836Z,100603.47
2024-02-19T09:59:15.167Z,100611.94
2024-02-19T10:01:45.088Z,100609.97
2024-02-19T10:04:15.911Z,100606.19
2024-02-19T10:06:46.743Z,100600.72
2024-02-19T10:09:16.896Z,100583.88
2024-02-19T10:11:48.602Z,100592.41
2024-02-19T10:14:21.592Z,100594.50
2024-02-19T10:16:54.270Z,100586.88
2024-02-19T10:19:24.160Z,100573.88
2024-02-19T10:21:54.021Z,100577.41
2024-02-19T10:24:24.536Z,100573.03
2024-02-19T10:26:55.004Z,100572.81
2024-02-19T10:29:29.523Z,100570.06
2024-02-19T10:31:59.342Z,100572.50
2024-02-19T10:34:29.256Z,100568.44
2024-02-19T10:37:00.410Z,100554.44
2024-02-19T10:39:33.055Z,100561.13
2024-02-19T10:42:03.357Z,100550.63
2024-02-19T10:44:37.037Z,100538.78
2024-02-19T10:47:08.620Z,100538.88
2024-02-19T10:49:38.535Z,100527.59
2024-02-19T10:52:08.967Z,100517.22
2024-02-19T10:54:38.794Z,100509.63
2024-02-19T10:57:10.972Z,100498.19
2024-02-19T10:59:44.426Z,100484.81
2024-02-19T11:02:14.443Z,100487.09
2024-02-19T11:04:44.481Z,100475.06
2024-02-19T11:07:16.289Z,100480.50
2024-02-19T11:09:46.153Z,100463.22
2024-02-19T11:12:18.487Z,100461.94
2024-02-19T11:14:53.850Z,100446.25
2024-02-19T11:17:23.655Z,100427.53
2024-02-19T11:19:55.171Z,100426.66
2024-02-19T11:22:31.644Z,100416.50
2024-02-19T11:25:02.382Z,100409.22
2024-02-19T11:27:32.405Z,100396.44
2024-02-19T11:30:07.403Z,100377.94
2024-02-19T11:32:38.018Z,100384.97
2024-02-19T11:35:15.215Z,100379.78
2024-02-19T11:37:47.411Z,100369.09
2024-02-19T11:40:17.472Z,100371.44
2024-02-19T11:42:48.110Z,100371.25
2024-02-19T11:45:21.208Z,100363.69
2024-02-19T11:47:51.239Z,100364.19
2024-02-19T11:50:25.145Z,100355.31
2024-02-19T11:52:55.434Z,100349.72
2024-02-19T11:55:25.524Z,100348.91
2024-02-19T11:57:55.887Z,100333.72
2024-02-19T12:00:31.130Z,100322.28
2024-02-19T12:03:04.030Z,100325.00
2024-02-19T12:05:34.225Z,100311.47
2024-02-19T12:08:05.504Z,100306.00
2024-02-19T12:10:35.673Z,100311.84
2024-02-19T12:13:05.600Z,100304.47
2024-02-19T12:15:38.075Z,100297.34
2024-02-19T12:18:08.298Z,100297.78
2024-02-19T12:20:38.226Z,100289.59
2024-02-19T12:23:08.258Z,100282.31
2024-02-19T12:25:38.131Z,100277.16
2024-02-19T12:28:08.633Z,100294.94
2024-02-19T12:30:41.058Z,100302.56
2024-02-19T12:33:12.285Z,100289.72
2024-02-19T12:35:42.480Z,100284.88
2024-02-19T12:38:12.455Z,100275.94
2024-02-19T12:40:42.797Z,100269.28
2024-02-19T12:43:13.064Z,100281.06
2024-02-19T12:45:45.749Z,100264.03
2024-02-19T12:48:15.677Z,100260.72
2024-02-19T12:50:45.568Z,100251.44
2024-02-19T12:53:16.746Z,100245.50
2024-02-19T12:55:46.590Z,100232.19
2024-02-19T12:58:16.912Z,100242.31
2024-02-19T13:00:49.829Z,100239.16
2024-02-19T13:03:19.795Z,100234.06
2024-02-19T13:05:50.202Z,100249.19
2024-02-19T13:08:20.418Z,100251.69
2024-02-19T13:10:51.238Z,100252.03
2024-02-19T13:13:21.833Z,100263.09
2024-02-19T13:15:55.061Z,100261.28
2024-02-19T13:18:25.273Z,100253.22
2024-02-19T13:20:57.585Z,100257.03
2024-02-19T13:23:27.746Z,100253.84
2024-02-19T13:25:57.499Z,100259.19
2024-02-19T13:28:27.331Z,100245.63
2024-02-19T13:31:00.056Z,100257.03
2024-02-19T13:33:30.711Z,100255.25
2024-02-19T13:36:00.607Z,100252.03
2024-02-19T13:38:31.172Z,100265.00
2024-02-19T13:41:04.461Z,100278.28
2024-02-19T13:43:34.778Z,100281.38
2024-02-19T13:46:08.703Z,100281.13
2024-02-19T13:48:40.888Z,100274.25
2024-02-19T13:51:10.890Z,100272.25
2024-02-19T13:53:40.768Z,100268.16
2024-02-19T13:56:10.609Z,100260.59
2024-02-19T13:58:40.638Z,100261.06
2024-02-19T14:01:13.560Z,100263.47
2024-02-19T14:03:44.104Z,100269.50
2024-02-19T14:06:13.991Z,100259.66
2024-02-19T14:08:43.886Z,100267.03
2024-02-19T14:11:13.691Z,100262.16
2024-02-19T14:13:50.832Z,100258.94
2024-02-19T14:16:27.868Z,100251.19
2024-02-19T14:18:58.346Z,100260.28
2024-02-19T14:21:29.864Z,100247.75
2024-02-19T14:23:59.919Z,100246.84
2024-02-19T14:26:30.422Z,100250.16
2024-02-19T14:29:02.786Z,100250.59
2024-02-19T14:31:35.901Z,100245.47
2024-02-19T14:34:05.917Z,100247.41
2024-02-19T14:36:35.933Z,100241.03
2024-02-19T14:39:11.039Z,100229.69
2024-02-19T14:41:41.054Z,100232.41
2024-02-19T14:44:10.948Z,100231.94
2024-02-19T14:46:51.622Z,100227.31
2024-02-19T14:49:27.697Z,100229.25
2024-02-19T14:51:58.255Z,100215.19
2024-02-19T14:54:28.350Z,100226.47
2024-02-19T14:57:00.426Z,100223.72
2024-02-19T14:59:30.777Z,100219.56
2024-02-19T15:02:04.134Z,100225.97
2024-02-19T15:04:34.211Z,100213.16
2024-02-19T15:07:04.912Z,100215.31
2024-02-19T15:09:34.931Z,100218.41
2024-02-19T15:12:04.775Z,100218.72
2024-02-19T15:14:34.634Z,100223.16
2024-02-19T15:17:07.867Z,100221.25
2024-02-19T15:19:37.860Z,100227.31
2024-02-19T15:22:07.799Z,100221.03
2024-02-19T15:24:37.616Z,100231.00
2024-02-19T15:27:07.522Z,100221.97
2024-02-19T15:29:37.357Z,100223.28
2024-02-19T15:32:11.924Z,100225.44
2024-02-19T15:34:41.803Z,100226.13
2024-02-19T15:37:11.705Z,100221.25
2024-02-19T15:39:41.521Z,100225.66
2024-02-19T15:42:11.343Z,100228.00
2024-02-19T15:44:41.262Z,100224.69
2024-02-19T15:47:14.141Z,100225.72
2024-02-19T15:49:48.258Z,100219.69
2024-02-19T15:52:18.385Z,100224.22
2024-02-19T15:54:50.675Z,100226.81
2024-02-19T15:57:21.867Z,100217.09
2024-02-19T15:59:52.490Z,100214.97
2024-02-19T16:02:24.927Z,100212.47
2024-02-19T16:04:54.842Z,100201.53
2024-02-19T16:07:26.563Z,100199.75
2024-02-19T16:09:57.497Z,100191.66
2024-02-19T16:12:27.591Z,100197.59
2024-02-19T16:14:57.438Z,100193.78
2024-02-19T16:17:29.855Z,100184.31
2024-02-19T16:19:59.742Z,100186.94
2024-02-19T16:22:29.588Z,100184.31
2024-02-19T16:25:00.595Z,100177.66
2024-02-19T16:27:31.159Z,100172.66
2024-02-19T16:30:00.971Z,100174.34
2024-02-19T16:32:34.748Z,100173.03
2024-02-19T16:35:05.833Z,100172.19
2024-02-19T16:37:36.060Z,100172.88
2024-02-19T16:40:07.158Z,100168.13
2024-02-19T16:42:39.483Z,100157.22
2024-02-19T16:45:10.344Z,100161.00
2024-02-19T16:47:42.738Z,100171.72
2024-02-19T16:50:12.719Z,100163.75
2024-02-19T16:52:42.904Z,100169.09
2024-02-19T16:55:12.857Z,100173.03
2024-02-19T16:57:42.954Z,100165.41
2024-02-19T17:00:13.833Z,100176.72
2024-02-19T17:02:46.420Z,100168.72
2024-02-19T17:05:16.578Z,100171.72
2024-02-19T17:07:46.778Z,100177.06
2024-02-19T17:10:19.126Z,100173.41
2024-02-19T17:12:49.446Z,100179.31
2024-02-19T17:15:19.460Z,100173.13
2024-02-19T17:17:51.897Z,100174.56
2024-02-19T17:20:22.464Z,100179.81
2024-02-19T17:22:52.641Z,100184.91
2024-02-19T17:25:22.568Z,100180.53
2024-02-19T17:27:53.129Z,100177.53
2024-02-19T17:30:23.201Z,100184.78
2024-02-19T17:32:55.974Z,100187.41
2024-02-19T17:35:26.875Z,100182.06
2024-02-19T17:37:56.728Z,100189.28
2024-02-19T17:40:27.476Z,100184.78
2024-02-19T17:42:57.379Z,100187.16
2024-02-19T17:45:27.302Z,100181.94
2024-02-19T17:47:59.942Z,100181.56
2024-02-19T17:50:36.908Z,100183.38
2024-02-19T17:53:07.121Z,100183.94
2024-02-19T17:55:37.124Z,100182.31
2024-02-19T17:58:07.346Z,100191.44
2024-02-19T18:00:37.540Z,100183.81
2024-02-19T18:03:10.179Z,100188.94
2024-02-19T18:05:40.393Z,100190.72
2024-02-19T18:08:10.446Z,100193.22
2024-02-19T18:10:40.350Z,100192.97
2024-02-19T18:13:11.274Z,100195.97
2024-02-19T18:15:41.298Z,100199.66
2024-02-19T18:18:13.889Z,100192.72
2024-02-19T18:20:49.407Z,100202.47
2024-02-19T18:23:20.247Z,100205.19
2024-02-19T18:25:50.401Z,100208.88
2024-02-19T18:28:20.175Z,100204.75
2024-02-19T18:30:50.055Z,100206.53
2024-02-19T18:33:23.445Z,100205.09
2024-02-19T18:35:53.226Z,100208.66
2024-02-19T18:38:23.064Z,100200.31
2024-02-19T18:40:54.471Z,100190.97
2024-02-19T18:43:26.859Z,100193.44
2024-02-19T18:45:56.873Z,100187.28
2024-02-19T18:48:30.011Z,100195.69
2024-02-19T18:50:59.960Z,100192.63
2024-02-19T18:53:29.791Z,100194.28
2024-02-19T18:56:01.893Z,100199.28
2024-02-19T18:58:32.672Z,100200.81
2024-02-19T19:01:05.607Z,100208.78
2024-02-19T19:03:38.412Z,100212.22
2024-02-19T19:06:08.971Z,100214.91
2024-02-19T19:08:38.813Z,100230.09
2024-02-19T19:11:08.640Z,100247.66
2024-02-19T19:13:41.686Z,100254.13
2024-02-19T19:16:11.608Z,100264.00
2024-02-19T19:18:44.347Z,100266.63
2024-02-19T19:21:14.876Z,100271.03
2024-02-19T19:23:46.634Z,100265.31
2024-02-19T19:26:16.958Z,100272.69
2024-02-19T19:28:46.831Z,100273.44
2024-02-19T19:31:16.684Z,100268.22
2024-02-19T19:33:49.361Z,100270.59
2024-02-19T19:36:19.468Z,100256.09
2024-02-19T19:38:49.278Z,100259.66
2024-02-19T19:41:19.122Z,100242.06
2024-02-19T19:43:50.873Z,100236.47
2024-02-19T19:46:20.897Z,100230.66
2024-02-19T19:48:53.331Z,100241.59
2024-02-19T19:51:21.118Z,100231.00
2024-02-19T19:53:50.921Z,100222.78
2024-02-19T19:56:20.738Z,100223.63
2024-02-19T19:58:54.809Z,100216.38
2024-02-19T20:01:24.845Z,100214.34
2024-02-19T20:03:57.344Z,100211.75
2024-02-19T20:06:27.318Z,100201.47
2024-02-19T20:08:57.153Z,100201.13
2024-02-19T20:11:27.078Z,100199.16
2024-02-19T20:13:57.002Z,100199.00
2024-02-19T20:16:28.216Z,100194.50
2024-02-19T20:19:00.785Z,100198.44
2024-02-19T20:21:30.664Z,100199.97
2024-02-19T20:24:02.332Z,100202.59
2024-02-19T20:26:32.232Z,100193.00
2024-02-19T20:29:02.136Z,100199.88
2024-02-19T20:31:32.622Z,100201.63
2024-02-19T20:34:05.168Z,100197.97
2024-02-19T20:36:37.753Z,100203.56
2024-02-19T20:39:10.438Z,100206.63
2024-02-19T20:41:40.233Z,100204.84
2024-02-19T20:44:09.990Z,100209.25
2024-02-19T20:46:40.540Z,100205.81
2024-02-19T20:49:13.388Z,100214.25
2024-02-19T20:51:43.574Z,100222.34
2024-02-19T20:54:13.684Z,100226.13
2024-02-19T20:56:45.126Z,100236.38
2024-02-19T20:59:15.081Z,100233.25
2024-02-19T21:01:47.812Z,100247.13
2024-02-19T21:04:20.993Z,100261.44
2024-02-19T21:06:50.886Z,100267.19
2024-02-19T21:09:20.767Z,100279.41
2024-02-19T21:11:50.638Z,100289.81
2024-02-19T21:14:21.235Z,100280.84
2024-02-19T21:16:51.123Z,100292.81
2024-02-19T21:19:25.064Z,100296.28
2024-02-19T21:21:55.068Z,100299.28
2024-02-19T21:24:25.281Z,100309.88
2024-02-19T21:26:56.436Z,100302.28
2024-02-19T21:29:30.105Z,100307.56
2024-02-19T21:32:00.250Z,100305.63
2024-02-19T21:34:32.776Z,100304.13
2024-02-19T21:37:02.639Z,100315.44
2024-02-19T21:39:32.607Z,100312.16
2024-02-19T21:42:02.401Z,100322.34
2024-02-19T21:44:32.206Z,100319.63
2024-02-19T21:47:03.505Z,100321.53
2024-02-19T21:49:35.944Z,100323.19
2024-02-19T21:52:05.830Z,100329.19
2024-02-19T21:54:35.670Z,100329.19
2024-02-19T21:57:05.626Z,100339.13
2024-02-19T21:59:35.553Z,100332.88
2024-02-19T22:02:05.471Z,100333.09
2024-02-19T22:04:39.802Z,100322.81
2024-02-19T22:07:10.348Z,100315.69
2024-02-19T22:09:41.066Z,100310.84
2024-02-19T22:12:12.041Z,100310.38
2024-02-19T22:14:42.294Z,100301.72
2024-02-19T22:17:12.176Z,100301.28
2024-02-19T22:19:45.092Z,100297.94
2024-02-19T22:22:15.556Z,100303.41
2024-02-19T22:24:46.286Z,100288.56
2024-02-19T22:27:16.133Z,100297.13
2024-02-19T22:29:45.940Z,100293.56
2024-02-19T22:32:15.689Z,100303.28
2024-02-19T22:34:48.466Z,100297.50
2024-02-19T22:37:19.200Z,100298.09
2024-02-19T22:39:49.101Z,100292.03
2024-02-19T22:42:18.951Z,100289.00
2024-02-19T22:44:48.746Z,100277.56
2024-02-19T22:47:18.542Z,100268.69
2024-02-19T22:49:50.950Z,100274.44
2024-02-19T22:52:20.892Z,100269.22
2024-02-19T22:54:51.370Z,100265.09
2024-02-19T22:57:22.585Z,100257.69
2024-02-19T22:59:53.106Z,100270.03
2024-02-19T23:02:22.897Z,100279.88
2024-02-19T23:04:55.301Z,100285.09
2024-02-19T23:07:25.114Z,100299.19
2024-02-19T23:09:54.929Z,100306.75
2024-02-19T23:12:24.758Z,100318.91
2024-02-19T23:14:54.547Z,100330.66
2024-02-19T23:17:24.323Z,100339.34
2024-02-19T23:19:56.841Z,100338.75
2024-02-19T23:22:26.734Z,100341.56
2024-02-19T23:24:56.584Z,100349.50
2024-02-19T23:27:27.247Z,100350.25
2024-02-19T23:29:57.073Z,100347.69
2024-02-19T23:32:26.973Z,100339.66
2024-02-19T23:34:59.999Z,100339.88
2024-02-19T23:37:29.983Z,100341.31
2024-02-19T23:40:00.083Z,100338.56
2024-02-19T23:42:30.019Z,100340.44
2024-02-19T23:44:59.898Z,100345.88
2024-02-19T23:47:30.360Z,100356.53
2024-02-19T23:50:02.957Z,100360.59
2024-02-19T23:52:33.294Z,100378.84
2024-02-19T23:55:03.583Z,100379.97
2024-02-19T23:57:33.525Z,100389.09
